Time;durP1;ratioP1;P1;durP2;ratioP2;P2;SDS_P1;SDS_P2;PMS_P1;PMS_P2;Temp;Humidity;BMP_temperature;BMP_pressure;BME280_temperature;BME280_humidity;BME280_pressure;Samples;Min_cycle;Max_cycle;Signal;HPM_P1;HPM_P2
2021/11/16 00:00:06;;;;;;;;;19.00;14.25;;;;;10.21;62.88;102321.22;5099826;27;46415;-88
2021/11/16 00:02:31;;;;;;;;;20.25;13.00;;;;;10.23;63.54;102333.47;5100165;27;45769;-88
2021/11/16 00:04:57;;;;;;;;;17.75;13.50;;;;;10.21;63.49;102326.47;5131260;27;45479;-89
2021/11/16 00:07:23;;;;;;;;;18.75;16.00;;;;;10.18;63.47;102324.72;5116456;27;45914;-88
2021/11/16 00:09:49;;;;;;;;;23.75;18.25;;;;;10.12;63.63;102320.38;5098522;27;47469;-93
2021/11/16 00:12:14;;;;;;;;;22.50;19.50;;;;;10.10;63.67;102314.25;5116724;27;45778;-95
2021/11/16 00:14:40;;;;;;;;;22.25;19.75;;;;;10.13;63.69;102313.38;5122160;27;45257;-94
2021/11/16 00:17:06;;;;;;;;;22.75;17.50;;;;;10.15;64.13;102311.59;5107463;27;45358;-90
2021/11/16 00:19:33;;;;;;;;;25.75;20.50;;;;;10.19;64.05;102313.34;5107557;27;46507;-96
2021/11/16 00:21:58;;;;;;;;;25.25;20.25;;;;;10.19;63.99;102317.72;5121550;27;45758;-89
2021/11/16 00:24:38;;;;;;;;;16.75;16.75;;;;;10.19;63.90;102318.59;5098709;27;45524;-88
2021/11/16 00:27:05;;;;;;;;;20.50;18.25;;;;;10.20;63.80;102312.44;5099125;27;45398;-88
2021/11/16 00:29:32;;;;;;;;;20.75;17.50;;;;;10.18;63.74;102305.44;5115487;27;46971;-89
2021/11/16 00:31:57;;;;;;;;;21.00;18.25;;;;;10.18;63.58;102303.69;5099580;27;45361;-88
2021/11/16 00:34:23;;;;;;;;;18.75;15.25;;;;;10.21;63.50;102303.69;5098831;27;45465;-90
2021/11/16 00:36:48;;;;;;;;;28.75;20.00;;;;;10.17;63.44;102288.84;5115505;27;45953;-90
2021/11/16 00:39:14;;;;;;;;;31.75;20.75;;;;;10.16;63.39;102294.09;5099179;27;46345;-90
2021/11/16 00:41:39;;;;;;;;;19.50;16.50;;;;;10.16;63.67;102296.72;5116085;27;45423;-95
2021/11/16 00:44:04;;;;;;;;;16.75;13.75;;;;;10.13;63.57;102287.97;5114754;27;45334;-95
2021/11/16 00:46:30;;;;;;;;;18.00;16.50;;;;;10.12;62.86;102296.72;5101776;27;46921;-93
2021/11/16 00:48:56;;;;;;;;;18.25;14.50;;;;;10.07;63.04;102276.63;5119537;27;47228;-92
2021/11/16 00:51:22;;;;;;;;;14.00;13.25;;;;;10.05;63.80;102263.50;5103834;27;45261;-92
2021/11/16 00:53:47;;;;;;;;;22.00;16.75;;;;;10.06;63.40;102262.63;5102378;27;45181;-92
2021/11/16 00:56:13;;;;;;;;;23.00;17.50;;;;;10.04;63.16;102260.88;5100947;27;46098;-93
2021/11/16 00:58:38;;;;;;;;;19.25;17.50;;;;;10.03;63.35;102267.88;5101879;27;47912;-92
2021/11/16 01:01:04;;;;;;;;;17.75;16.00;;;;;10.06;63.22;102265.25;5119158;27;45188;-92
2021/11/16 01:03:30;;;;;;;;;20.75;14.75;;;;;10.07;63.13;102261.75;5109000;27;45518;-91
2021/11/16 01:05:56;;;;;;;;;13.75;12.00;;;;;10.12;63.21;102265.19;5093420;27;45418;-91
2021/11/16 01:08:23;;;;;;;;;18.75;11.25;;;;;10.11;63.25;102260.84;5126354;27;47824;-92
2021/11/16 01:10:50;;;;;;;;;19.25;14.25;;;;;10.11;62.85;102258.22;5114889;27;45886;-93
2021/11/16 01:13:17;;;;;;;;;16.25;14.75;;;;;10.15;63.40;102252.94;5101443;27;45420;-87
2021/11/16 01:15:45;;;;;;;;;12.00;12.00;;;;;10.15;63.80;102247.69;5101511;27;45456;-88
2021/11/16 01:18:12;;;;;;;;;20.75;14.75;;;;;10.15;63.25;102247.69;5119083;27;48393;-87
2021/11/16 01:20:38;;;;;;;;;19.50;13.25;;;;;10.15;63.37;102243.28;5100964;27;45728;-90
2021/11/16 01:23:07;;;;;;;;;14.75;12.00;;;;;10.17;63.06;102244.16;5098021;27;45280;-88
2021/11/16 01:25:37;;;;;;;;;15.50;11.50;;;;;10.17;62.70;102240.66;5097035;27;45404;-88
2021/11/16 01:28:08;;;;;;;;;14.00;11.00;;;;;10.15;62.67;102243.28;5101992;27;46187;-88
2021/11/16 01:30:33;;;;;;;;;16.25;13.25;;;;;10.14;62.96;102241.56;5102415;27;45695;-87
2021/11/16 01:33:04;;;;;;;;;12.25;9.25;;;;;10.11;62.47;102246.81;5102419;27;45226;-88
2021/11/16 01:35:32;;;;;;;;;13.75;10.75;;;;;10.09;62.87;102248.59;5100815;27;45333;-88
2021/11/16 01:37:58;;;;;;;;;14.50;10.75;;;;;10.12;62.80;102249.44;5104888;27;46127;-88
2021/11/16 01:40:23;;;;;;;;;24.50;16.75;;;;;10.12;62.74;102257.31;5111767;27;45268;-88
2021/11/16 01:42:52;;;;;;;;;21.50;14.75;;;;;10.08;63.13;102252.97;5100145;27;45547;-88
2021/11/16 01:45:18;;;;;;;;;18.50;13.00;;;;;10.13;63.21;102253.81;5102413;27;45663;-96
2021/11/16 01:47:45;;;;;;;;;19.25;12.00;;;;;10.16;63.30;102255.56;5118854;27;47158;-95
2021/11/16 01:50:12;;;;;;;;;19.25;14.75;;;;;10.16;63.17;102254.66;5101232;27;45316;-91
2021/11/16 01:52:38;;;;;;;;;17.00;13.75;;;;;10.19;63.50;102259.91;5116988;27;45460;-89
2021/11/16 01:55:07;;;;;;;;;21.25;14.50;;;;;10.16;63.45;102257.31;5100390;27;45913;-93
2021/11/16 01:57:33;;;;;;;;;21.25;17.50;;;;;10.14;63.45;102254.69;5119874;27;47389;-90
2021/11/16 01:59:59;;;;;;;;;18.75;15.75;;;;;10.13;63.69;102259.06;5105364;27;45334;-95
2021/11/16 02:02:24;;;;;;;;;17.50;13.75;;;;;10.15;63.20;102256.41;5118595;27;45316;-95
2021/11/16 02:04:49;;;;;;;;;16.00;13.50;;;;;10.16;63.77;102241.53;5117848;27;45790;-91
2021/11/16 02:07:15;;;;;;;;;21.75;16.50;;;;;10.18;64.00;102248.53;5099349;27;47061;-92
2021/11/16 02:09:42;;;;;;;;;15.00;10.00;;;;;10.21;63.84;102242.38;5100088;27;45452;-92
2021/11/16 02:12:07;;;;;;;;;15.00;12.75;;;;;10.20;64.24;102243.25;5101534;27;45189;-93
2021/11/16 02:14:34;;;;;;;;;18.75;15.75;;;;;10.23;63.97;102252.00;5102249;27;45933;-92
2021/11/16 02:17:00;;;;;;;;;22.75;15.75;;;;;10.24;63.84;102242.38;5109207;27;45512;-92
2021/11/16 02:19:26;;;;;;;;;21.50;15.75;;;;;10.24;63.53;102238.00;5106765;27;45454;-93
2021/11/16 02:21:51;;;;;;;;;19.25;14.75;;;;;10.27;64.26;102241.47;5092703;27;45325;-93
2021/11/16 02:24:17;;;;;;;;;18.00;16.25;;;;;10.28;64.16;102235.31;5099122;27;46210;-93
2021/11/16 02:26:43;;;;;;;;;17.50;16.50;;;;;10.28;64.36;102235.31;5115904;27;47101;-93
2021/11/16 02:29:09;;;;;;;;;15.00;13.75;;;;;10.29;64.19;102229.19;5120702;27;45685;-93
2021/11/16 02:31:35;;;;;;;;;22.00;15.00;;;;;10.30;64.42;102237.03;5102013;27;45393;-93
2021/11/16 02:34:02;;;;;;;;;19.75;15.25;;;;;10.30;63.67;102231.78;5117810;27;46023;-93
2021/11/16 02:36:31;;;;;;;;;21.25;14.75;;;;;10.31;63.80;102230.91;5101768;27;45372;-93
2021/11/16 02:38:57;;;;;;;;;15.25;12.25;;;;;10.32;63.52;102234.44;5098969;27;46016;-92
2021/11/16 02:41:29;;;;;;;;;16.25;12.25;;;;;10.30;63.39;102229.16;5101682;27;45297;-88
2021/11/16 02:43:54;;;;;;;;;15.75;12.00;;;;;10.31;63.31;102224.78;5101212;27;45242;-89
2021/11/16 02:46:20;;;;;;;;;15.50;10.25;;;;;10.28;63.36;102225.69;5101392;27;46651;-88
2021/11/16 02:48:45;;;;;;;;;15.50;12.25;;;;;10.32;63.40;102229.16;5102288;27;45444;-89
2021/11/16 02:51:11;;;;;;;;;18.50;14.75;;;;;10.31;63.23;102230.91;5099701;27;45422;-90
2021/11/16 02:53:38;;;;;;;;;15.00;14.00;;;;;10.29;63.54;102237.06;5101021;27;45508;-88
2021/11/16 02:56:08;;;;;;;;;17.25;15.00;;;;;10.30;63.68;102233.53;5100352;27;46383;-89
2021/11/16 02:58:34;;;;;;;;;17.50;15.50;;;;;10.29;63.59;102234.44;5100489;27;45720;-91
2021/11/16 03:01:07;;;;;;;;;22.00;17.50;;;;;10.26;63.58;102230.09;5099923;27;45271;-91
2021/11/16 03:03:33;;;;;;;;;17.25;14.00;;;;;10.24;63.75;102231.84;5101012;27;45222;-91
2021/11/16 03:05:59;;;;;;;;;19.25;16.25;;;;;10.24;63.64;102226.59;5101269;27;46661;-95
2021/11/16 03:08:26;;;;;;;;;23.00;15.75;;;;;10.26;64.15;102232.72;5130377;27;45256;-95
2021/11/16 03:10:56;;;;;;;;;21.00;15.50;;;;;10.26;63.84;102218.69;5115285;27;45331;-92
2021/11/16 03:13:23;;;;;;;;;23.75;17.25;;;;;10.28;64.13;102224.81;5113634;27;46289;-94
2021/11/16 03:15:49;;;;;;;;;27.00;19.75;;;;;10.27;63.79;102221.31;5117875;27;47264;-93
2021/11/16 03:18:15;;;;;;;;;14.50;14.00;;;;;10.30;63.92;102225.66;5115936;27;45276;-96
2021/11/16 03:20:42;;;;;;;;;20.75;15.50;;;;;10.30;63.88;102229.16;5093680;27;45524;-96
2021/11/16 03:25:40;;;;;;;;;18.50;16.25;;;;;10.25;63.25;102228.31;5085032;27;46174;-95
2021/11/16 03:28:09;;;;;;;;;17.50;14.00;;;;;10.22;63.57;102223.97;5128420;27;46040;-88
2021/11/16 03:30:35;;;;;;;;;14.75;13.25;;;;;10.21;64.02;102224.88;5097666;27;45436;-91
2021/11/16 03:33:01;;;;;;;;;17.25;15.50;;;;;10.21;63.72;102229.25;5099728;27;45917;-94
2021/11/16 03:35:27;;;;;;;;;19.00;13.50;;;;;10.18;63.55;102221.38;5104768;27;47897;-93
2021/11/16 03:37:57;;;;;;;;;19.00;15.25;;;;;10.13;63.67;102219.66;5110678;27;45200;-93
2021/11/16 03:40:23;;;;;;;;;17.50;15.50;;;;;10.13;63.90;102224.91;5126754;27;45972;-94
2021/11/16 03:42:50;;;;;;;;;16.00;12.00;;;;;10.12;63.87;102217.91;5099889;27;46078;-95
2021/11/16 03:45:20;;;;;;;;;17.75;14.50;;;;;10.11;64.05;102221.44;5116639;27;47642;-88
2021/11/16 03:47:46;;;;;;;;;12.50;12.25;;;;;10.13;63.82;102224.03;5108109;27;45398;-87
2021/11/16 03:50:16;;;;;;;;;14.25;11.50;;;;;10.09;63.74;102228.47;5099406;27;45487;-87
2021/11/16 03:52:43;;;;;;;;;17.25;12.25;;;;;10.08;64.09;102226.69;5100353;27;45176;-92
2021/11/16 03:55:13;;;;;;;;;13.25;11.50;;;;;10.07;64.52;102224.97;5100506;27;45417;-93
2021/11/16 03:57:39;;;;;;;;;15.00;9.00;;;;;10.08;64.11;102229.31;5100685;27;45811;-92
2021/11/16 04:00:13;;;;;;;;;17.00;10.50;;;;;10.07;63.86;102235.47;5098935;27;47181;-93
2021/11/16 04:02:39;;;;;;;;;14.50;12.00;;;;;10.05;64.71;102233.75;5099570;27;46171;-94
2021/11/16 04:05:05;;;;;;;;;16.00;12.25;;;;;10.03;64.73;102233.72;5116408;27;47423;-91
2021/11/16 04:07:31;;;;;;;;;19.50;16.00;;;;;10.03;64.79;102231.09;5100460;27;45229;-92
2021/11/16 04:09:57;;;;;;;;;20.75;13.25;;;;;10.04;64.96;102226.72;5108028;27;45261;-92
2021/11/16 04:12:22;;;;;;;;;21.50;17.25;;;;;10.01;65.14;102227.63;5103166;27;47364;-92
2021/11/16 04:14:48;;;;;;;;;24.75;16.50;;;;;10.01;64.66;102227.63;5116174;27;46905;-92
2021/11/16 04:17:13;;;;;;;;;22.00;13.75;;;;;10.02;64.78;102232.00;5116382;27;45405;-90
2021/11/16 04:19:39;;;;;;;;;17.75;16.75;;;;;9.99;64.41;102226.75;5099246;27;45163;-91
2021/11/16 04:22:05;;;;;;;;;17.50;13.00;;;;;9.97;64.42;102225.91;5101394;27;45406;-90
2021/11/16 04:24:30;;;;;;;;;17.25;12.50;;;;;9.97;64.39;102234.66;5101942;27;47434;-90
2021/11/16 04:26:56;;;;;;;;;19.50;16.25;;;;;9.95;64.95;102225.91;5101944;27;45465;-89
2021/11/16 04:29:21;;;;;;;;;21.25;14.75;;;;;9.98;65.07;102231.13;5118204;27;45317;-89
2021/11/16 04:31:47;;;;;;;;;15.50;12.75;;;;;9.97;64.32;102229.41;5103250;27;45633;-87
2021/11/16 04:34:13;;;;;;;;;15.50;11.75;;;;;9.98;64.75;102225.00;5103203;27;45408;-86
2021/11/16 04:36:38;;;;;;;;;17.75;11.50;;;;;9.97;65.09;102218.91;5103301;27;45233;-89
2021/11/16 04:39:05;;;;;;;;;18.75;16.00;;;;;10.01;65.09;102222.38;5101685;27;45327;-89
2021/11/16 04:41:31;;;;;;;;;14.50;12.00;;;;;10.03;64.99;102225.84;5102131;27;45510;-89
2021/11/16 04:43:59;;;;;;;;;17.75;14.50;;;;;10.04;64.43;102227.59;5103149;27;46201;-89
2021/11/16 04:46:25;;;;;;;;;21.00;16.50;;;;;10.00;64.21;102218.00;5103093;27;45709;-89
2021/11/16 04:49:07;;;;;;;;;16.50;15.50;;;;;10.02;63.97;102224.13;5102747;27;45348;-90
2021/11/16 04:52:13;;;;;;;;;17.00;12.25;;;;;10.04;64.40;102226.72;5100505;27;45702;-91
2021/11/16 05:02:41;;;;;;;;;17.75;13.25;;;;;10.09;63.88;102236.34;5102603;27;46034;-90
2021/11/16 05:05:12;;;;;;;;;15.00;10.00;;;;;10.08;63.77;102234.59;5103000;27;46074;-90
2021/11/16 05:07:44;;;;;;;;;20.75;14.50;;;;;10.09;63.73;102238.09;5107472;27;45805;-91
2021/11/16 05:10:09;;;;;;;;;19.00;15.50;;;;;10.10;63.86;102238.06;5108380;27;45534;-92
2021/11/16 05:12:35;;;;;;;;;18.75;12.75;;;;;10.12;63.73;102232.81;5102559;27;45411;-89
2021/11/16 05:15:06;;;;;;;;;20.75;14.00;;;;;10.12;64.05;102233.66;5101506;27;48152;-90
2021/11/16 05:17:31;;;;;;;;;19.25;17.25;;;;;10.12;63.73;102238.91;5102083;27;45405;-93
2021/11/16 05:19:56;;;;;;;;;28.50;18.25;;;;;10.12;63.90;102236.28;5117763;27;45442;-93
2021/11/16 05:22:22;;;;;;;;;21.25;18.00;;;;;10.13;63.80;102235.41;5102843;27;45281;-92
2021/11/16 05:24:48;;;;;;;;;18.50;17.00;;;;;10.12;63.91;102220.53;5094905;27;46419;-93
2021/11/16 05:27:15;;;;;;;;;23.25;17.00;;;;;10.16;63.77;102228.41;5099461;27;45148;-95
2021/11/16 05:29:41;;;;;;;;;20.25;14.50;;;;;10.16;63.93;102226.66;5100374;27;45447;-92
2021/11/16 05:32:06;;;;;;;;;19.50;18.50;;;;;10.21;64.18;102230.13;5087404;27;47190;-95
2021/11/16 05:34:32;;;;;;;;;16.25;13.75;;;;;10.21;63.43;102232.75;5116559;27;47325;-95
2021/11/16 05:36:57;;;;;;;;;20.00;14.75;;;;;10.22;63.94;102234.47;5101835;27;45530;-96
2021/11/16 05:39:23;;;;;;;;;24.75;17.75;;;;;10.23;63.50;102238.84;5119146;27;45371;-94
2021/11/16 05:41:48;;;;;;;;;19.25;16.50;;;;;10.22;63.08;102234.47;5093212;27;46137;-95
2021/11/16 05:44:14;;;;;;;;;17.75;17.00;;;;;10.21;63.59;102245.00;5102174;27;47305;-88
2021/11/16 05:46:40;;;;;;;;;15.75;13.75;;;;;10.22;62.98;102238.88;5118103;27;45798;-88
2021/11/16 05:49:05;;;;;;;;;23.00;18.25;;;;;10.24;63.32;102245.00;5101591;27;45438;-86
2021/11/16 05:51:31;;;;;;;;;19.75;17.75;;;;;10.22;62.96;102233.63;5101414;27;45144;-88
2021/11/16 05:54:00;;;;;;;;;31.75;26.50;;;;;10.20;63.32;102236.25;5088908;27;45893;-93
2021/11/16 05:56:35;;;;;;;;;29.75;23.25;;;;;10.20;63.31;102230.09;5101226;27;45767;-95
2021/11/16 05:59:02;;;;;;;;;26.25;19.75;;;;;10.21;62.90;102238.00;5118324;27;45311;-92
2021/11/16 06:01:31;;;;;;;;;22.00;19.75;;;;;10.17;63.06;102246.81;5108197;27;45407;-90
2021/11/16 06:03:57;;;;;;;;;28.75;23.25;;;;;10.19;63.29;102249.41;5117370;27;45299;-86
2021/11/16 06:06:27;;;;;;;;;21.75;20.50;;;;;10.17;62.97;102248.56;5100637;27;45426;-92
2021/11/16 06:08:53;;;;;;;;;24.50;21.25;;;;;10.18;63.05;102247.66;5102464;27;45433;-91
2021/11/16 06:11:20;;;;;;;;;15.25;12.25;;;;;10.18;63.26;102250.28;5096528;27;45494;-90
2021/11/16 06:13:47;;;;;;;;;26.75;19.50;;;;;10.18;63.29;102247.66;5110212;27;48331;-90
2021/11/16 06:16:13;;;;;;;;;22.50;18.25;;;;;10.18;62.78;102242.38;5100525;27;45784;-92
2021/11/16 06:18:39;;;;;;;;;24.00;19.50;;;;;10.15;62.99;102245.06;5114796;27;45475;-88
2021/11/16 06:21:04;;;;;;;;;22.75;16.50;;;;;10.18;63.27;102250.28;5097613;27;46324;-94
2021/11/16 06:23:31;;;;;;;;;24.00;22.25;;;;;10.17;63.07;102249.44;5114345;27;47100;-87
2021/11/16 06:25:57;;;;;;;;;21.75;18.50;;;;;10.17;63.40;102256.44;5094060;27;45422;-87
2021/11/16 06:28:22;;;;;;;;;29.75;27.00;;;;;10.18;63.62;102253.78;5090538;27;45613;-88
2021/11/16 06:30:47;;;;;;;;;28.25;24.50;;;;;10.20;63.07;102246.75;5099216;27;45522;-88
2021/11/16 06:33:19;;;;;;;;;29.75;27.00;;;;;10.23;63.21;102257.25;5099348;27;46609;-88
2021/11/16 06:35:45;;;;;;;;;35.50;29.25;;;;;10.23;63.04;102256.38;5090742;27;45211;-87
2021/11/16 06:38:10;;;;;;;;;33.75;27.75;;;;;10.24;63.28;102253.75;5083851;27;45334;-87
2021/11/16 06:40:35;;;;;;;;;25.75;22.50;;;;;10.25;63.31;102257.22;5107541;27;46157;-86
2021/11/16 06:43:01;;;;;;;;;35.75;27.75;;;;;10.25;62.88;102262.50;5096734;27;46683;-86
2021/11/16 06:45:26;;;;;;;;;33.00;24.75;;;;;10.27;62.53;102258.13;5102204;27;45413;-86
2021/11/16 06:47:51;;;;;;;;;24.00;20.00;;;;;10.28;62.78;102257.22;5099146;27;45371;-88
2021/11/16 06:50:17;;;;;;;;;22.25;18.75;;;;;10.28;62.77;102262.47;5114746;27;45573;-87
2021/11/16 06:52:43;;;;;;;;;20.50;16.00;;;;;10.27;62.50;102255.50;5099469;27;47384;-88
2021/11/16 06:55:09;;;;;;;;;22.50;20.75;;;;;10.28;62.54;102256.34;5099155;27;45616;-87
2021/11/16 06:57:36;;;;;;;;;28.50;23.75;;;;;10.28;62.69;102264.22;5109841;27;45483;-88
2021/11/16 07:00:05;;;;;;;;;30.75;22.50;;;;;10.27;62.89;102258.13;5093710;27;45981;-88
2021/11/16 07:02:31;;;;;;;;;29.00;27.25;;;;;10.29;62.76;102263.34;5084721;27;46541;-87
2021/11/16 07:04:56;;;;;;;;;39.75;28.75;;;;;10.27;62.96;102262.50;5080697;27;45383;-87
2021/11/16 07:07:22;;;;;;;;;23.25;18.50;;;;;10.26;62.68;102256.34;5086740;27;45402;-87
2021/11/16 07:09:47;;;;;;;;;25.50;21.50;;;;;10.28;63.00;102270.34;5095676;27;46550;-87
2021/11/16 07:12:24;;;;;;;;;30.25;23.00;;;;;10.29;63.07;102261.59;5094559;27;46081;-87
2021/11/16 07:14:51;;;;;;;;;28.25;21.25;;;;;10.30;63.12;102263.31;5095326;27;45525;-90
2021/11/16 07:17:18;;;;;;;;;31.50;27.75;;;;;10.30;62.94;102260.69;5104931;27;45420;-88
2021/11/16 07:19:55;;;;;;;;;44.00;34.75;;;;;10.29;62.95;102269.50;5103300;27;45375;-88
2021/11/16 07:22:32;;;;;;;;;26.00;23.25;;;;;10.29;62.81;102269.50;5103049;27;47017;-88
2021/11/16 07:25:13;;;;;;;;;43.50;27.50;;;;;10.25;62.97;102267.75;5094989;27;45670;-88
2021/11/16 07:27:44;;;;;;;;;29.50;23.50;;;;;10.23;63.07;102267.75;5095528;27;45602;-88
2021/11/16 07:30:12;;;;;;;;;24.00;20.25;;;;;10.21;63.04;102263.41;5107935;27;46447;-88
2021/11/16 07:32:59;;;;;;;;;27.50;20.00;;;;;10.22;63.02;102266.00;5095801;27;47713;-89
2021/11/16 07:35:28;;;;;;;;;24.50;19.75;;;;;10.19;62.90;102257.28;5091285;27;45849;-88
2021/11/16 07:38:05;;;;;;;;;25.00;17.00;;;;;10.19;62.50;102270.44;5108970;27;45276;-88
2021/11/16 07:40:33;;;;;;;;;22.50;19.75;;;;;10.15;62.92;102268.72;5100019;27;45499;-89
2021/11/16 07:43:10;;;;;;;;;34.75;27.75;;;;;10.18;62.64;102268.66;5115455;27;48292;-88
2021/11/16 07:45:41;;;;;;;;;28.25;22.50;;;;;10.19;62.60;102273.06;5099783;27;45432;-88
2021/11/16 07:48:10;;;;;;;;;33.00;27.50;;;;;10.18;62.30;102281.81;5095940;27;45255;-88
2021/11/16 07:50:36;;;;;;;;;29.75;22.75;;;;;10.18;62.62;102280.06;5096609;27;45349;-88
2021/11/16 07:53:10;;;;;;;;;25.00;21.25;;;;;10.20;62.91;102278.28;5099252;27;45419;-88
2021/11/16 07:55:37;;;;;;;;;24.00;22.75;;;;;10.21;62.92;102280.03;5102577;27;45515;-88
2021/11/16 07:58:08;;;;;;;;;26.75;22.00;;;;;10.25;63.01;102283.50;5102342;27;45349;-89
2021/11/16 08:00:39;;;;;;;;;27.00;24.00;;;;;10.25;62.38;102280.88;5103945;27;45213;-88
2021/11/16 08:03:11;;;;;;;;;28.25;20.50;;;;;10.27;62.58;102279.16;5103536;27;46389;-87
2021/11/16 08:06:02;;;;;;;;;34.75;27.75;;;;;10.28;62.08;102275.63;5120342;27;45303;-94
2021/11/16 08:11:19;;;;;;;;;46.25;38.25;;;;;10.30;62.26;102272.97;5101299;27;45955;-90
2021/11/16 08:14:00;;;;;;;;;43.25;35.50;;;;;10.32;62.28;102268.59;5100387;27;48495;-90
2021/11/16 08:16:27;;;;;;;;;31.25;26.50;;;;;10.34;62.69;102272.97;5103723;27;45295;-89
2021/11/16 08:19:00;;;;;;;;;26.75;21.75;;;;;10.37;62.63;102273.81;5104161;27;45327;-90
2021/11/16 08:21:26;;;;;;;;;23.50;22.50;;;;;10.39;62.88;102270.28;5103663;27;45528;-89
2021/11/16 08:23:58;;;;;;;;;23.25;18.50;;;;;10.44;62.21;102270.25;5129060;27;47418;-90
2021/11/16 08:26:33;;;;;;;;;25.75;18.00;;;;;10.42;62.07;102264.16;5111174;27;45436;-90
2021/11/16 08:29:00;;;;;;;;;22.25;17.50;;;;;10.44;62.91;102272.88;5102200;27;45213;-90
2021/11/16 08:31:32;;;;;;;;;24.00;18.75;;;;;10.43;62.16;102268.50;5101926;27;46425;-90
2021/11/16 08:33:58;;;;;;;;;19.75;17.50;;;;;10.44;61.44;102265.00;5103083;27;46440;-90
2021/11/16 08:36:27;;;;;;;;;22.25;16.00;;;;;10.45;62.05;102272.84;5101094;27;45500;-91
2021/11/16 08:38:56;;;;;;;;;21.25;19.50;;;;;10.44;61.79;102265.00;5102824;27;45307;-90
2021/11/16 08:41:33;;;;;;;;;24.50;21.00;;;;;10.44;61.40;102265.00;5102278;27;45249;-88
2021/11/16 08:44:15;;;;;;;;;21.25;17.50;;;;;10.44;61.45;102258.00;5094923;27;48123;-90
2021/11/16 08:46:45;;;;;;;;;24.25;20.75;;;;;10.41;61.65;102255.38;5095332;27;45811;-89
2021/11/16 08:49:32;;;;;;;;;21.50;17.25;;;;;10.44;61.49;102254.47;5103290;27;45143;-89
2021/11/16 08:52:02;;;;;;;;;24.50;20.00;;;;;10.43;61.57;102255.34;5102953;27;45252;-90
2021/11/16 08:54:35;;;;;;;;;17.50;14.25;;;;;10.44;60.95;102260.63;5101373;27;47940;-90
2021/11/16 08:57:03;;;;;;;;;21.50;16.00;;;;;10.42;61.12;102251.00;5113700;27;45510;-90
2021/11/16 08:59:36;;;;;;;;;18.25;12.75;;;;;10.46;61.59;102244.81;5093738;27;45237;-89
2021/11/16 09:02:07;;;;;;;;;20.75;17.50;;;;;10.50;62.08;102243.91;5108377;27;45265;-90
2021/11/16 09:04:36;;;;;;;;;18.00;17.50;;;;;10.54;62.32;102243.00;5102674;27;46156;-89
2021/11/16 09:07:14;;;;;;;;;18.00;15.25;;;;;10.56;61.82;102243.91;5100845;27;45659;-90
2021/11/16 09:09:51;;;;;;;;;23.00;18.00;;;;;10.62;61.16;102252.63;5106298;27;45277;-89
2021/11/16 09:12:16;;;;;;;;;14.25;13.50;;;;;10.64;61.04;102245.59;5117154;27;47027;-89
2021/11/16 09:14:55;;;;;;;;;25.25;19.00;;;;;10.63;61.28;102239.44;5098949;27;46183;-89
2021/11/16 09:17:20;;;;;;;;;20.50;17.25;;;;;10.68;61.70;102252.56;5103081;27;45918;-93
2021/11/16 09:19:45;;;;;;;;;17.75;16.00;;;;;10.73;61.32;102247.25;5106797;27;45289;-88
2021/11/16 09:22:18;;;;;;;;;21.00;16.00;;;;;10.69;60.84;102243.78;5096663;27;45431;-90
2021/11/16 09:24:46;;;;;;;;;24.00;17.75;;;;;10.74;60.83;102244.59;5091667;27;47135;-85
2021/11/16 09:27:59;;;;;;;;;19.50;17.75;;;;;10.76;61.27;102239.34;5099643;27;45407;-94
2021/11/16 09:29:57;;;;;;;;;14.75;13.75;;;;;10.77;61.02;102231.44;5094827;27;45396;-93
2021/11/16 09:32:22;;;;;;;;;24.25;20.00;;;;;10.80;61.07;102231.41;5118444;27;45915;-91
2021/11/16 09:34:51;;;;;;;;;22.25;17.50;;;;;10.84;61.15;102224.34;5097778;27;46382;-95
2021/11/16 09:37:21;;;;;;;;;17.00;14.00;;;;;10.88;60.96;102220.81;5092069;27;45252;-93
2021/11/16 09:39:52;;;;;;;;;23.75;21.75;;;;;10.89;60.40;102233.06;5099219;27;45262;-89
2021/11/16 09:42:30;;;;;;;;;22.25;19.00;;;;;10.92;59.90;102229.53;5102323;27;45412;-95
2021/11/16 09:45:04;;;;;;;;;22.25;15.75;;;;;10.89;60.17;102232.22;5113244;27;47114;-91
2021/11/16 09:47:32;;;;;;;;;29.50;20.75;;;;;10.88;59.85;102233.97;5095177;27;46077;-87
2021/11/16 09:50:06;;;;;;;;;21.75;19.00;;;;;10.88;60.20;102227.81;5101580;27;45453;-87
2021/11/16 09:52:43;;;;;;;;;22.75;17.25;;;;;10.94;60.86;102226.91;5099464;27;45213;-91
2021/11/16 09:55:14;;;;;;;;;23.75;18.00;;;;;10.97;61.07;102235.63;5098176;27;46579;-89
2021/11/16 09:57:46;;;;;;;;;18.75;14.50;;;;;10.98;60.78;102233.84;5106027;27;45432;-89
2021/11/16 10:00:14;;;;;;;;;18.25;17.50;;;;;11.04;60.84;102228.50;5123491;27;45495;-92
2021/11/16 10:02:43;;;;;;;;;28.00;20.75;;;;;11.09;61.10;102220.56;5101968;27;45286;-90
2021/11/16 10:05:20;;;;;;;;;19.75;17.00;;;;;11.12;60.99;102220.53;5095336;27;48216;-88
2021/11/16 10:08:01;;;;;;;;;18.00;15.75;;;;;11.13;60.41;102212.66;5095808;27;45904;-87
2021/11/16 10:10:31;;;;;;;;;18.00;17.00;;;;;11.18;60.29;102220.50;5101517;27;45355;-86
2021/11/16 10:12:59;;;;;;;;;20.50;20.00;;;;;11.19;59.99;102214.31;5100992;27;45390;-86
2021/11/16 10:15:28;;;;;;;;;17.25;16.50;;;;;11.23;59.44;102226.56;5100110;27;45593;-87
2021/11/16 10:17:54;;;;;;;;;16.50;14.00;;;;;11.20;60.06;102229.22;5116481;27;46154;-87
2021/11/16 10:20:27;;;;;;;;;19.00;13.75;;;;;11.22;59.50;102226.56;5100777;27;45559;-89
2021/11/16 10:22:57;;;;;;;;;14.00;13.50;;;;;11.21;58.99;102219.59;5099549;27;46088;-89
2021/11/16 10:25:26;;;;;;;;;20.00;15.00;;;;;11.22;59.17;102223.94;5099612;27;47066;-89
2021/11/16 10:27:54;;;;;;;;;17.75;15.50;;;;;11.22;59.15;102226.56;5095965;27;45513;-89
2021/11/16 10:30:27;;;;;;;;;48.75;37.75;;;;;11.22;59.13;102224.81;5099304;27;45240;-88
2021/11/16 10:33:09;;;;;;;;;24.50;22.25;;;;;11.24;59.27;102228.28;5104625;27;45679;-89
2021/11/16 10:35:42;;;;;;;;;21.00;16.75;;;;;11.21;59.62;102222.22;5108571;27;46095;-88
2021/11/16 10:38:12;;;;;;;;;29.50;25.50;;;;;11.22;59.59;102222.19;5102499;27;45565;-87
2021/11/16 10:40:39;;;;;;;;;18.75;17.00;;;;;11.24;58.86;102227.41;5099383;27;45410;-91
2021/11/16 10:43:06;;;;;;;;;26.75;24.00;;;;;11.22;59.17;102221.31;5099557;27;45428;-89
2021/11/16 10:45:38;;;;;;;;;16.50;14.50;;;;;11.21;59.02;102228.31;5115452;27;47171;-92
2021/11/16 10:48:08;;;;;;;;;20.25;17.50;;;;;11.21;59.08;102220.44;5099001;27;45887;-93
2021/11/16 10:50:35;;;;;;;;;21.00;16.75;;;;;11.21;59.45;102225.69;5101381;27;45393;-92
2021/11/16 10:53:15;;;;;;;;;20.25;15.25;;;;;11.19;59.32;102216.94;5100048;27;45609;-92
2021/11/16 10:55:42;;;;;;;;;22.75;16.50;;;;;11.21;59.78;102220.44;5100099;27;45645;-87
2021/11/16 10:58:13;;;;;;;;;19.50;16.00;;;;;11.21;59.86;102215.16;5100561;27;45708;-86
2021/11/16 11:00:55;;;;;;;;;23.25;17.00;;;;;11.23;60.02;102212.53;5100299;27;45252;-87
2021/11/16 11:03:31;;;;;;;;;20.75;15.25;;;;;11.27;60.49;102218.63;5100317;27;45441;-87
2021/11/16 11:06:14;;;;;;;;;18.50;17.00;;;;;11.29;60.02;102208.94;5110385;27;45356;-87
2021/11/16 11:08:52;;;;;;;;;22.00;16.00;;;;;11.30;60.26;102213.31;5102827;27;45733;-86
2021/11/16 11:11:20;;;;;;;;;20.00;19.00;;;;;11.31;60.03;102202.75;5100413;27;45345;-90
2021/11/16 11:14:03;;;;;;;;;22.25;15.50;;;;;11.31;59.81;102200.13;5105268;27;45542;-89
2021/11/16 11:16:31;;;;;;;;;17.75;16.00;;;;;11.33;60.12;102200.13;5117729;27;45441;-87
2021/11/16 11:18:56;;;;;;;;;18.75;15.50;;;;;11.37;59.73;102193.94;5121351;27;46145;-89
2021/11/16 11:21:44;;;;;;;;;19.75;14.25;;;;;11.36;58.81;102185.16;5093256;27;45402;-87
2021/11/16 11:24:12;;;;;;;;;19.50;15.00;;;;;11.36;58.95;102186.91;5098568;27;46916;-91
2021/11/16 11:26:44;;;;;;;;;20.50;17.50;;;;;11.37;59.64;102183.41;5094850;27;46183;-96
2021/11/16 11:29:44;;;;;;;;;22.25;19.25;;;;;11.35;59.42;102175.53;5113472;27;45058;-91